sensor_id;sensor_type;location;lat;lon;timestamp;P1;durP1;ratioP1;P2;durP2;ratioP2
3487;SDS011;38546;48.170;11.724;2023-02-28T00:02:41;5.20;;;4.70;;
3487;SDS011;38546;48.170;11.724;2023-02-28T00:05:31;6.23;;;4.00;;
3487;SDS011;38546;48.170;11.724;2023-02-28T00:08:21;8.17;;;5.20;;
3487;SDS011;38546;48.170;11.724;2023-02-28T00:11:11;6.23;;;5.63;;
3487;SDS011;38546;48.170;11.724;2023-02-28T00:14:02;8.10;;;4.53;;
3487;SDS011;38546;48.170;11.724;2023-02-28T00:16:52;7.40;;;5.33;;
3487;SDS011;38546;48.170;11.724;2023-02-28T00:19:41;6.70;;;4.30;;
3487;SDS011;38546;48.170;11.724;2023-02-28T00:22:30;6.47;;;5.37;;
3487;SDS011;38546;48.170;11.724;2023-02-28T00:25:20;5.17;;;4.30;;
3487;SDS011;38546;48.170;11.724;2023-02-28T00:28:13;7.13;;;4.63;;
3487;SDS011;38546;48.170;11.724;2023-02-28T00:31:02;7.00;;;4.63;;
3487;SDS011;38546;48.170;11.724;2023-02-28T00:33:51;6.37;;;4.43;;
3487;SDS011;38546;48.170;11.724;2023-02-28T00:36:41;7.47;;;4.83;;
3487;SDS011;38546;48.170;11.724;2023-02-28T00:39:34;5.67;;;4.73;;
3487;SDS011;38546;48.170;11.724;2023-02-28T00:42:25;6.80;;;4.60;;
3487;SDS011;38546;48.170;11.724;2023-02-28T00:45:15;7.20;;;4.63;;
3487;SDS011;38546;48.170;11.724;2023-02-28T00:48:04;6.33;;;4.80;;
3487;SDS011;38546;48.170;11.724;2023-02-28T00:50:54;8.83;;;4.63;;
3487;SDS011;38546;48.170;11.724;2023-02-28T00:53:44;7.90;;;4.17;;
3487;SDS011;38546;48.170;11.724;2023-02-28T00:56:33;5.63;;;4.63;;
3487;SDS011;38546;48.170;11.724;2023-02-28T00:59:22;7.10;;;4.57;;
3487;SDS011;38546;48.170;11.724;2023-02-28T01:02:11;5.60;;;4.60;;
3487;SDS011;38546;48.170;11.724;2023-02-28T01:05:00;8.30;;;5.13;;
3487;SDS011;38546;48.170;11.724;2023-02-28T01:07:49;8.67;;;4.60;;
3487;SDS011;38546;48.170;11.724;2023-02-28T01:10:39;9.03;;;5.33;;
3487;SDS011;38546;48.170;11.724;2023-02-28T01:13:28;9.50;;;4.50;;
3487;SDS011;38546;48.170;11.724;2023-02-28T01:16:18;4.97;;;4.27;;
3487;SDS011;38546;48.170;11.724;2023-02-28T01:19:07;6.00;;;3.90;;
3487;SDS011;38546;48.170;11.724;2023-02-28T01:21:59;8.10;;;5.00;;
3487;SDS011;38546;48.170;11.724;2023-02-28T01:24:53;9.00;;;5.00;;
3487;SDS011;38546;48.170;11.724;2023-02-28T01:27:42;10.53;;;5.00;;
3487;SDS011;38546;48.170;11.724;2023-02-28T01:30:31;8.47;;;5.13;;
3487;SDS011;38546;48.170;11.724;2023-02-28T01:33:21;5.90;;;4.37;;
3487;SDS011;38546;48.170;11.724;2023-02-28T01:36:11;7.33;;;4.83;;
3487;SDS011;38546;48.170;11.724;2023-02-28T01:39:12;5.87;;;4.80;;
3487;SDS011;38546;48.170;11.724;2023-02-28T01:42:01;5.37;;;4.27;;
3487;SDS011;38546;48.170;11.724;2023-02-28T01:44:58;8.07;;;4.80;;
3487;SDS011;38546;48.170;11.724;2023-02-28T01:48:09;4.77;;;4.27;;
3487;SDS011;38546;48.170;11.724;2023-02-28T01:51:00;7.30;;;4.80;;
3487;SDS011;38546;48.170;11.724;2023-02-28T01:53:56;9.27;;;5.87;;
3487;SDS011;38546;48.170;11.724;2023-02-28T01:56:53;5.20;;;4.63;;
3487;SDS011;38546;48.170;11.724;2023-02-28T02:00:00;5.67;;;4.83;;
3487;SDS011;38546;48.170;11.724;2023-02-28T02:03:06;9.50;;;5.07;;
3487;SDS011;38546;48.170;11.724;2023-02-28T02:05:59;6.93;;;4.80;;
3487;SDS011;38546;48.170;11.724;2023-02-28T02:08:49;7.43;;;4.57;;
3487;SDS011;38546;48.170;11.724;2023-02-28T02:11:39;6.03;;;4.97;;
3487;SDS011;38546;48.170;11.724;2023-02-28T02:14:36;8.17;;;5.87;;
3487;SDS011;38546;48.170;11.724;2023-02-28T02:18:43;9.83;;;4.63;;
3487;SDS011;38546;48.170;11.724;2023-02-28T02:21:57;6.07;;;5.20;;
3487;SDS011;38546;48.170;11.724;2023-02-28T02:25:18;12.10;;;5.17;;
3487;SDS011;38546;48.170;11.724;2023-02-28T02:28:41;7.20;;;4.97;;
3487;SDS011;38546;48.170;11.724;2023-02-28T02:35:54;7.60;;;4.93;;
3487;SDS011;38546;48.170;11.724;2023-02-28T02:42:28;11.20;;;4.97;;
3487;SDS011;38546;48.170;11.724;2023-02-28T02:45:54;8.20;;;5.07;;
3487;SDS011;38546;48.170;11.724;2023-02-28T02:48:49;11.00;;;5.83;;
3487;SDS011;38546;48.170;11.724;2023-02-28T02:51:43;9.73;;;5.10;;
3487;SDS011;38546;48.170;11.724;2023-02-28T02:54:35;7.97;;;5.67;;
3487;SDS011;38546;48.170;11.724;2023-02-28T02:57:32;9.13;;;5.73;;
3487;SDS011;38546;48.170;11.724;2023-02-28T03:00:30;9.17;;;4.93;;
3487;SDS011;38546;48.170;11.724;2023-02-28T03:03:24;8.87;;;5.47;;
3487;SDS011;38546;48.170;11.724;2023-02-28T03:06:17;7.93;;;4.80;;
3487;SDS011;38546;48.170;11.724;2023-02-28T03:09:07;9.60;;;5.27;;
3487;SDS011;38546;48.170;11.724;2023-02-28T03:11:56;10.43;;;5.93;;
3487;SDS011;38546;48.170;11.724;2023-02-28T03:14:49;13.23;;;5.53;;
3487;SDS011;38546;48.170;11.724;2023-02-28T03:18:08;14.87;;;5.77;;
3487;SDS011;38546;48.170;11.724;2023-02-28T03:22:44;7.30;;;5.67;;
3487;SDS011;38546;48.170;11.724;2023-02-28T03:27:23;9.73;;;5.13;;
3487;SDS011;38546;48.170;11.724;2023-02-28T03:30:23;8.13;;;6.40;;
3487;SDS011;38546;48.170;11.724;2023-02-28T03:33:27;15.10;;;6.57;;
3487;SDS011;38546;48.170;11.724;2023-02-28T03:36:38;8.63;;;6.47;;
3487;SDS011;38546;48.170;11.724;2023-02-28T03:39:41;11.60;;;7.60;;
3487;SDS011;38546;48.170;11.724;2023-02-28T03:42:36;13.03;;;7.00;;
3487;SDS011;38546;48.170;11.724;2023-02-28T03:45:30;12.07;;;6.43;;
3487;SDS011;38546;48.170;11.724;2023-02-28T03:48:26;12.60;;;7.10;;
3487;SDS011;38546;48.170;11.724;2023-02-28T03:51:23;12.27;;;6.47;;
3487;SDS011;38546;48.170;11.724;2023-02-28T03:54:17;16.60;;;7.50;;
3487;SDS011;38546;48.170;11.724;2023-02-28T03:57:17;12.30;;;6.33;;
3487;SDS011;38546;48.170;11.724;2023-02-28T04:00:36;9.73;;;6.70;;
3487;SDS011;38546;48.170;11.724;2023-02-28T04:03:29;14.87;;;7.07;;
3487;SDS011;38546;48.170;11.724;2023-02-28T04:06:19;15.83;;;8.10;;
3487;SDS011;38546;48.170;11.724;2023-02-28T04:09:11;14.57;;;7.90;;
3487;SDS011;38546;48.170;11.724;2023-02-28T04:12:02;13.73;;;8.30;;
3487;SDS011;38546;48.170;11.724;2023-02-28T04:14:52;12.60;;;7.87;;
3487;SDS011;38546;48.170;11.724;2023-02-28T04:17:42;28.93;;;8.70;;
3487;SDS011;38546;48.170;11.724;2023-02-28T04:20:31;14.37;;;8.23;;
3487;SDS011;38546;48.170;11.724;2023-02-28T04:23:20;14.00;;;8.10;;
3487;SDS011;38546;48.170;11.724;2023-02-28T04:26:09;21.40;;;9.10;;
3487;SDS011;38546;48.170;11.724;2023-02-28T04:28:59;14.83;;;8.40;;
3487;SDS011;38546;48.170;11.724;2023-02-28T04:31:49;20.30;;;9.53;;
3487;SDS011;38546;48.170;11.724;2023-02-28T04:34:38;17.27;;;8.60;;
3487;SDS011;38546;48.170;11.724;2023-02-28T04:37:28;14.33;;;8.40;;
3487;SDS011;38546;48.170;11.724;2023-02-28T04:40:18;20.37;;;9.43;;
3487;SDS011;38546;48.170;11.724;2023-02-28T04:43:07;15.83;;;8.50;;
3487;SDS011;38546;48.170;11.724;2023-02-28T04:45:57;18.93;;;10.43;;
3487;SDS011;38546;48.170;11.724;2023-02-28T04:48:50;19.07;;;8.80;;
3487;SDS011;38546;48.170;11.724;2023-02-28T04:51:39;19.47;;;10.47;;
3487;SDS011;38546;48.170;11.724;2023-02-28T04:54:29;16.80;;;8.80;;
3487;SDS011;38546;48.170;11.724;2023-02-28T04:57:19;17.10;;;9.00;;
3487;SDS011;38546;48.170;11.724;2023-02-28T05:00:08;20.03;;;10.00;;
3487;SDS011;38546;48.170;11.724;2023-02-28T05:03:00;22.37;;;10.60;;
3487;SDS011;38546;48.170;11.724;2023-02-28T05:05:49;16.93;;;9.20;;
3487;SDS011;38546;48.170;11.724;2023-02-28T05:08:38;16.10;;;9.70;;
3487;SDS011;38546;48.170;11.724;2023-02-28T05:11:29;16.67;;;10.60;;
3487;SDS011;38546;48.170;11.724;2023-02-28T05:14:24;16.70;;;9.93;;
3487;SDS011;38546;48.170;11.724;2023-02-28T05:17:13;18.03;;;9.90;;
3487;SDS011;38546;48.170;11.724;2023-02-28T05:20:03;20.73;;;10.87;;
3487;SDS011;38546;48.170;11.724;2023-02-28T05:22:53;22.67;;;10.93;;
3487;SDS011;38546;48.170;11.724;2023-02-28T05:25:43;17.57;;;10.37;;
3487;SDS011;38546;48.170;11.724;2023-02-28T05:28:32;21.03;;;10.43;;
3487;SDS011;38546;48.170;11.724;2023-02-28T05:31:21;19.23;;;9.13;;
3487;SDS011;38546;48.170;11.724;2023-02-28T05:34:11;28.13;;;12.50;;
3487;SDS011;38546;48.170;11.724;2023-02-28T05:37:00;19.50;;;11.60;;
3487;SDS011;38546;48.170;11.724;2023-02-28T05:39:50;27.10;;;11.73;;
3487;SDS011;38546;48.170;11.724;2023-02-28T05:42:39;26.07;;;12.60;;
3487;SDS011;38546;48.170;11.724;2023-02-28T05:45:28;23.00;;;11.50;;
3487;SDS011;38546;48.170;11.724;2023-02-28T05:48:17;26.93;;;11.70;;
3487;SDS011;38546;48.170;11.724;2023-02-28T05:51:06;24.07;;;11.87;;
3487;SDS011;38546;48.170;11.724;2023-02-28T05:54:00;26.23;;;11.60;;
3487;SDS011;38546;48.170;11.724;2023-02-28T05:56:49;21.97;;;11.30;;
3487;SDS011;38546;48.170;11.724;2023-02-28T05:59:38;17.87;;;10.93;;
3487;SDS011;38546;48.170;11.724;2023-02-28T06:02:29;26.13;;;12.70;;
3487;SDS011;38546;48.170;11.724;2023-02-28T06:05:18;26.73;;;11.73;;
3487;SDS011;38546;48.170;11.724;2023-02-28T06:08:07;29.17;;;13.77;;
3487;SDS011;38546;48.170;11.724;2023-02-28T06:10:56;27.70;;;13.23;;
3487;SDS011;38546;48.170;11.724;2023-02-28T06:13:45;22.37;;;13.23;;
3487;SDS011;38546;48.170;11.724;2023-02-28T06:16:34;24.70;;;13.27;;
3487;SDS011;38546;48.170;11.724;2023-02-28T06:19:24;22.43;;;11.60;;
3487;SDS011;38546;48.170;11.724;2023-02-28T06:22:14;25.27;;;12.97;;
3487;SDS011;38546;48.170;11.724;2023-02-28T06:25:03;30.03;;;13.60;;
3487;SDS011;38546;48.170;11.724;2023-02-28T06:27:54;24.30;;;14.23;;
3487;SDS011;38546;48.170;11.724;2023-02-28T06:30:44;22.20;;;13.10;;
3487;SDS011;38546;48.170;11.724;2023-02-28T06:33:33;28.40;;;13.17;;
3487;SDS011;38546;48.170;11.724;2023-02-28T06:36:22;28.77;;;11.47;;
3487;SDS011;38546;48.170;11.724;2023-02-28T06:39:11;19.27;;;11.60;;
3487;SDS011;38546;48.170;11.724;2023-02-28T06:42:00;21.53;;;11.33;;
3487;SDS011;38546;48.170;11.724;2023-02-28T06:44:50;25.03;;;12.77;;
3487;SDS011;38546;48.170;11.724;2023-02-28T06:47:40;20.57;;;11.27;;
3487;SDS011;38546;48.170;11.724;2023-02-28T06:50:30;23.47;;;11.70;;
3487;SDS011;38546;48.170;11.724;2023-02-28T06:53:20;22.37;;;11.60;;
3487;SDS011;38546;48.170;11.724;2023-02-28T06:56:11;18.43;;;11.13;;
3487;SDS011;38546;48.170;11.724;2023-02-28T06:59:03;22.93;;;12.87;;
3487;SDS011;38546;48.170;11.724;2023-02-28T07:01:53;22.63;;;11.40;;
3487;SDS011;38546;48.170;11.724;2023-02-28T07:04:43;18.10;;;10.27;;
3487;SDS011;38546;48.170;11.724;2023-02-28T07:07:32;21.70;;;11.97;;
3487;SDS011;38546;48.170;11.724;2023-02-28T07:10:24;27.77;;;12.07;;
3487;SDS011;38546;48.170;11.724;2023-02-28T07:13:13;21.80;;;11.60;;
3487;SDS011;38546;48.170;11.724;2023-02-28T07:16:03;26.10;;;11.60;;
3487;SDS011;38546;48.170;11.724;2023-02-28T07:18:54;21.80;;;10.93;;
3487;SDS011;38546;48.170;11.724;2023-02-28T07:21:44;19.17;;;10.87;;
3487;SDS011;38546;48.170;11.724;2023-02-28T07:24:33;16.00;;;9.70;;
3487;SDS011;38546;48.170;11.724;2023-02-28T07:27:23;19.63;;;10.23;;
3487;SDS011;38546;48.170;11.724;2023-02-28T07:30:14;24.97;;;12.20;;
3487;SDS011;38546;48.170;11.724;2023-02-28T07:33:03;24.43;;;12.23;;
3487;SDS011;38546;48.170;11.724;2023-02-28T07:35:59;21.83;;;12.67;;
3487;SDS011;38546;48.170;11.724;2023-02-28T07:38:50;22.70;;;12.77;;
3487;SDS011;38546;48.170;11.724;2023-02-28T07:41:39;24.77;;;13.50;;
3487;SDS011;38546;48.170;11.724;2023-02-28T07:44:31;25.60;;;12.90;;
3487;SDS011;38546;48.170;11.724;2023-02-28T07:47:20;29.17;;;14.60;;
3487;SDS011;38546;48.170;11.724;2023-02-28T07:50:10;24.20;;;14.10;;
3487;SDS011;38546;48.170;11.724;2023-02-28T07:53:02;26.10;;;14.07;;
3487;SDS011;38546;48.170;11.724;2023-02-28T07:55:56;26.53;;;15.33;;
3487;SDS011;38546;48.170;11.724;2023-02-28T07:58:46;25.60;;;14.30;;
3487;SDS011;38546;48.170;11.724;2023-02-28T08:01:35;26.53;;;12.83;;
3487;SDS011;38546;48.170;11.724;2023-02-28T08:04:25;27.97;;;13.97;;
3487;SDS011;38546;48.170;11.724;2023-02-28T08:07:15;24.93;;;13.57;;
3487;SDS011;38546;48.170;11.724;2023-02-28T08:10:06;23.47;;;13.10;;
3487;SDS011;38546;48.170;11.724;2023-02-28T08:12:58;27.47;;;14.23;;
3487;SDS011;38546;48.170;11.724;2023-02-28T08:15:47;22.97;;;11.90;;
3487;SDS011;38546;48.170;11.724;2023-02-28T08:18:37;26.07;;;14.30;;
3487;SDS011;38546;48.170;11.724;2023-02-28T08:21:26;24.23;;;13.80;;
3487;SDS011;38546;48.170;11.724;2023-02-28T08:24:15;20.60;;;12.80;;
3487;SDS011;38546;48.170;11.724;2023-02-28T08:27:04;19.83;;;12.27;;
3487;SDS011;38546;48.170;11.724;2023-02-28T08:29:54;27.33;;;13.73;;
3487;SDS011;38546;48.170;11.724;2023-02-28T08:32:43;24.10;;;13.20;;
3487;SDS011;38546;48.170;11.724;2023-02-28T08:35:34;30.80;;;14.67;;
3487;SDS011;38546;48.170;11.724;2023-02-28T08:38:25;23.40;;;12.90;;
3487;SDS011;38546;48.170;11.724;2023-02-28T08:41:14;24.87;;;12.93;;
3487;SDS011;38546;48.170;11.724;2023-02-28T08:44:03;33.40;;;14.43;;
3487;SDS011;38546;48.170;11.724;2023-02-28T08:46:53;22.23;;;12.50;;
3487;SDS011;38546;48.170;11.724;2023-02-28T08:49:42;24.97;;;12.80;;
3487;SDS011;38546;48.170;11.724;2023-02-28T08:52:31;29.57;;;14.60;;
3487;SDS011;38546;48.170;11.724;2023-02-28T08:55:21;22.27;;;12.37;;
3487;SDS011;38546;48.170;11.724;2023-02-28T08:58:10;25.67;;;13.43;;
3487;SDS011;38546;48.170;11.724;2023-02-28T09:01:00;28.80;;;13.30;;
3487;SDS011;38546;48.170;11.724;2023-02-28T09:03:56;25.73;;;12.90;;
3487;SDS011;38546;48.170;11.724;2023-02-28T09:06:46;19.70;;;11.07;;
3487;SDS011;38546;48.170;11.724;2023-02-28T09:09:37;29.47;;;15.20;;
3487;SDS011;38546;48.170;11.724;2023-02-28T09:12:26;32.33;;;15.10;;
3487;SDS011;38546;48.170;11.724;2023-02-28T09:15:23;26.73;;;14.33;;
3487;SDS011;38546;48.170;11.724;2023-02-28T09:18:12;24.63;;;13.87;;
3487;SDS011;38546;48.170;11.724;2023-02-28T09:21:03;28.10;;;13.97;;
3487;SDS011;38546;48.170;11.724;2023-02-28T09:23:56;20.80;;;13.10;;
3487;SDS011;38546;48.170;11.724;2023-02-28T09:26:46;25.70;;;13.50;;
3487;SDS011;38546;48.170;11.724;2023-02-28T09:29:35;30.73;;;14.30;;
3487;SDS011;38546;48.170;11.724;2023-02-28T09:32:25;27.33;;;13.87;;
3487;SDS011;38546;48.170;11.724;2023-02-28T09:35:14;27.73;;;13.30;;
3487;SDS011;38546;48.170;11.724;2023-02-28T09:38:05;30.47;;;14.40;;
3487;SDS011;38546;48.170;11.724;2023-02-28T09:41:00;23.83;;;12.80;;
3487;SDS011;38546;48.170;11.724;2023-02-28T09:43:58;21.87;;;12.40;;
3487;SDS011;38546;48.170;11.724;2023-02-28T09:46:54;27.73;;;17.07;;
3487;SDS011;38546;48.170;11.724;2023-02-28T09:49:49;25.20;;;14.40;;
3487;SDS011;38546;48.170;11.724;2023-02-28T09:52:39;26.13;;;14.73;;
3487;SDS011;38546;48.170;11.724;2023-02-28T09:55:30;28.63;;;14.70;;
3487;SDS011;38546;48.170;11.724;2023-02-28T09:58:42;24.50;;;13.63;;
3487;SDS011;38546;48.170;11.724;2023-02-28T10:03:30;23.13;;;13.03;;
3487;SDS011;38546;48.170;11.724;2023-02-28T10:06:28;28.23;;;13.47;;
3487;SDS011;38546;48.170;11.724;2023-02-28T10:09:26;27.73;;;13.90;;
3487;SDS011;38546;48.170;11.724;2023-02-28T10:12:22;23.70;;;13.53;;
3487;SDS011;38546;48.170;11.724;2023-02-28T10:15:15;28.90;;;13.43;;
3487;SDS011;38546;48.170;11.724;2023-02-28T10:18:06;19.70;;;12.13;;
3487;SDS011;38546;48.170;11.724;2023-02-28T10:21:03;23.23;;;13.83;;
3487;SDS011;38546;48.170;11.724;2023-02-28T10:23:56;25.77;;;14.07;;
3487;SDS011;38546;48.170;11.724;2023-02-28T10:26:56;23.00;;;13.67;;
3487;SDS011;38546;48.170;11.724;2023-02-28T10:30:05;22.53;;;12.40;;
3487;SDS011;38546;48.170;11.724;2023-02-28T10:32:58;26.13;;;14.00;;
3487;SDS011;38546;48.170;11.724;2023-02-28T10:35:48;23.83;;;12.63;;
3487;SDS011;38546;48.170;11.724;2023-02-28T10:38:38;20.30;;;13.10;;
3487;SDS011;38546;48.170;11.724;2023-02-28T10:41:30;21.03;;;11.70;;
3487;SDS011;38546;48.170;11.724;2023-02-28T10:44:24;22.10;;;11.80;;
3487;SDS011;38546;48.170;11.724;2023-02-28T10:47:16;25.07;;;12.43;;
3487;SDS011;38546;48.170;11.724;2023-02-28T10:50:26;25.70;;;13.20;;
3487;SDS011;38546;48.170;11.724;2023-02-28T10:53:37;28.23;;;13.50;;
3487;SDS011;38546;48.170;11.724;2023-02-28T10:56:40;20.20;;;12.60;;
3487;SDS011;38546;48.170;11.724;2023-02-28T10:59:30;22.90;;;13.07;;
3487;SDS011;38546;48.170;11.724;2023-02-28T11:02:31;21.03;;;12.37;;
3487;SDS011;38546;48.170;11.724;2023-02-28T11:05:28;22.23;;;11.87;;
3487;SDS011;38546;48.170;11.724;2023-02-28T11:08:23;21.10;;;12.20;;
3487;SDS011;38546;48.170;11.724;2023-02-28T11:11:13;26.23;;;13.60;;
3487;SDS011;38546;48.170;11.724;2023-02-28T11:14:04;28.67;;;13.47;;
3487;SDS011;38546;48.170;11.724;2023-02-28T11:16:54;22.60;;;12.57;;
3487;SDS011;38546;48.170;11.724;2023-02-28T11:19:54;24.80;;;12.50;;
3487;SDS011;38546;48.170;11.724;2023-02-28T11:22:50;22.30;;;13.10;;
3487;SDS011;38546;48.170;11.724;2023-02-28T11:25:40;22.40;;;14.10;;
3487;SDS011;38546;48.170;11.724;2023-02-28T11:28:45;23.93;;;12.50;;
3487;SDS011;38546;48.170;11.724;2023-02-28T11:31:34;26.37;;;13.43;;
3487;SDS011;38546;48.170;11.724;2023-02-28T11:34:25;19.43;;;11.50;;
3487;SDS011;38546;48.170;11.724;2023-02-28T11:37:16;20.23;;;11.40;;
3487;SDS011;38546;48.170;11.724;2023-02-28T11:40:17;23.60;;;14.90;;
3487;SDS011;38546;48.170;11.724;2023-02-28T11:49:58;24.60;;;11.50;;
3487;SDS011;38546;48.170;11.724;2023-02-28T12:00:28;18.17;;;11.10;;
3487;SDS011;38546;48.170;11.724;2023-02-28T12:03:51;22.57;;;12.93;;
3487;SDS011;38546;48.170;11.724;2023-02-28T12:07:15;23.77;;;13.20;;
3487;SDS011;38546;48.170;11.724;2023-02-28T12:10:29;26.47;;;12.70;;
3487;SDS011;38546;48.170;11.724;2023-02-28T12:13:29;23.10;;;11.53;;
3487;SDS011;38546;48.170;11.724;2023-02-28T12:17:06;22.50;;;12.40;;
3487;SDS011;38546;48.170;11.724;2023-02-28T12:20:37;22.97;;;13.80;;
3487;SDS011;38546;48.170;11.724;2023-02-28T12:23:55;22.57;;;13.00;;
3487;SDS011;38546;48.170;11.724;2023-02-28T12:29:56;23.27;;;12.53;;
3487;SDS011;38546;48.170;11.724;2023-02-28T12:32:56;19.07;;;11.57;;
3487;SDS011;38546;48.170;11.724;2023-02-28T12:36:00;24.03;;;13.00;;
3487;SDS011;38546;48.170;11.724;2023-02-28T12:39:08;22.60;;;11.90;;
3487;SDS011;38546;48.170;11.724;2023-02-28T12:42:11;21.30;;;12.37;;
3487;SDS011;38546;48.170;11.724;2023-02-28T12:45:10;19.13;;;11.10;;
3487;SDS011;38546;48.170;11.724;2023-02-28T12:48:14;17.13;;;10.37;;
3487;SDS011;38546;48.170;11.724;2023-02-28T12:51:10;17.80;;;11.10;;
3487;SDS011;38546;48.170;11.724;2023-02-28T12:54:04;21.00;;;11.77;;
3487;SDS011;38546;48.170;11.724;2023-02-28T13:11:46;19.73;;;11.33;;
3487;SDS011;38546;48.170;11.724;2023-02-28T13:14:41;16.50;;;11.20;;
3487;SDS011;38546;48.170;11.724;2023-02-28T13:17:38;19.30;;;11.00;;
3487;SDS011;38546;48.170;11.724;2023-02-28T13:20:33;15.50;;;10.20;;
3487;SDS011;38546;48.170;11.724;2023-02-28T13:43:35;26.27;;;12.53;;
3487;SDS011;38546;48.170;11.724;2023-02-28T13:47:22;21.50;;;11.00;;
3487;SDS011;38546;48.170;11.724;2023-02-28T13:53:34;19.10;;;11.70;;
3487;SDS011;38546;48.170;11.724;2023-02-28T13:56:49;18.73;;;11.70;;
3487;SDS011;38546;48.170;11.724;2023-02-28T14:00:36;20.93;;;11.30;;
3487;SDS011;38546;48.170;11.724;2023-02-28T14:05:25;22.87;;;11.40;;
3487;SDS011;38546;48.170;11.724;2023-02-28T14:08:19;24.93;;;11.50;;
3487;SDS011;38546;48.170;11.724;2023-02-28T14:11:23;19.33;;;11.17;;
3487;SDS011;38546;48.170;11.724;2023-02-28T14:20:43;20.53;;;11.00;;
3487;SDS011;38546;48.170;11.724;2023-02-28T14:30:02;18.37;;;10.60;;
3487;SDS011;38546;48.170;11.724;2023-02-28T14:37:10;16.80;;;9.97;;
3487;SDS011;38546;48.170;11.724;2023-02-28T14:40:12;17.87;;;10.90;;
3487;SDS011;38546;48.170;11.724;2023-02-28T14:43:16;20.57;;;11.27;;
3487;SDS011;38546;48.170;11.724;2023-02-28T14:46:13;17.30;;;10.57;;
3487;SDS011;38546;48.170;11.724;2023-02-28T14:49:04;18.60;;;10.50;;
3487;SDS011;38546;48.170;11.724;2023-02-28T14:52:06;16.33;;;10.63;;
3487;SDS011;38546;48.170;11.724;2023-02-28T14:55:14;14.10;;;9.23;;
3487;SDS011;38546;48.170;11.724;2023-02-28T14:58:17;17.43;;;10.27;;
3487;SDS011;38546;48.170;11.724;2023-02-28T15:01:19;19.77;;;11.07;;
3487;SDS011;38546;48.170;11.724;2023-02-28T15:04:12;24.63;;;11.20;;
3487;SDS011;38546;48.170;11.724;2023-02-28T15:07:14;23.03;;;10.63;;
3487;SDS011;38546;48.170;11.724;2023-02-28T15:10:07;19.53;;;11.97;;
3487;SDS011;38546;48.170;11.724;2023-02-28T15:13:14;17.60;;;10.20;;
3487;SDS011;38546;48.170;11.724;2023-02-28T15:16:04;17.67;;;10.90;;
3487;SDS011;38546;48.170;11.724;2023-02-28T15:19:05;20.73;;;10.80;;
3487;SDS011;38546;48.170;11.724;2023-02-28T15:22:12;16.43;;;9.70;;
3487;SDS011;38546;48.170;11.724;2023-02-28T15:25:06;18.33;;;9.30;;
3487;SDS011;38546;48.170;11.724;2023-02-28T15:27:58;24.73;;;11.37;;
3487;SDS011;38546;48.170;11.724;2023-02-28T15:30:52;16.60;;;10.00;;
3487;SDS011;38546;48.170;11.724;2023-02-28T15:33:54;16.30;;;10.77;;
3487;SDS011;38546;48.170;11.724;2023-02-28T15:36:46;22.97;;;10.87;;
3487;SDS011;38546;48.170;11.724;2023-02-28T15:39:40;25.43;;;13.03;;
3487;SDS011;38546;48.170;11.724;2023-02-28T15:42:32;23.37;;;12.70;;
3487;SDS011;38546;48.170;11.724;2023-02-28T15:45:28;20.00;;;10.80;;
3487;SDS011;38546;48.170;11.724;2023-02-28T15:48:28;25.07;;;10.77;;
3487;SDS011;38546;48.170;11.724;2023-02-28T15:51:33;19.97;;;11.57;;
3487;SDS011;38546;48.170;11.724;2023-02-28T15:54:30;21.53;;;12.13;;
3487;SDS011;38546;48.170;11.724;2023-02-28T15:57:28;25.87;;;11.43;;
3487;SDS011;38546;48.170;11.724;2023-02-28T16:00:19;19.50;;;11.50;;
3487;SDS011;38546;48.170;11.724;2023-02-28T16:03:27;23.57;;;11.63;;
3487;SDS011;38546;48.170;11.724;2023-02-28T16:10:16;18.00;;;11.60;;
3487;SDS011;38546;48.170;11.724;2023-02-28T16:13:06;17.70;;;11.20;;
3487;SDS011;38546;48.170;11.724;2023-02-28T16:16:00;20.50;;;11.67;;
3487;SDS011;38546;48.170;11.724;2023-02-28T16:18:50;27.13;;;12.30;;
3487;SDS011;38546;48.170;11.724;2023-02-28T16:21:39;21.47;;;11.93;;
3487;SDS011;38546;48.170;11.724;2023-02-28T16:24:28;25.10;;;12.10;;
3487;SDS011;38546;48.170;11.724;2023-02-28T16:27:21;21.37;;;11.60;;
3487;SDS011;38546;48.170;11.724;2023-02-28T16:30:21;22.33;;;11.60;;
3487;SDS011;38546;48.170;11.724;2023-02-28T16:33:12;22.40;;;11.67;;
3487;SDS011;38546;48.170;11.724;2023-02-28T16:36:01;24.90;;;11.37;;
3487;SDS011;38546;48.170;11.724;2023-02-28T16:38:51;20.13;;;12.30;;
3487;SDS011;38546;48.170;11.724;2023-02-28T16:41:44;23.30;;;13.43;;
3487;SDS011;38546;48.170;11.724;2023-02-28T16:44:34;28.63;;;12.80;;
3487;SDS011;38546;48.170;11.724;2023-02-28T16:47:24;26.40;;;13.40;;
3487;SDS011;38546;48.170;11.724;2023-02-28T16:50:22;23.70;;;12.63;;
3487;SDS011;38546;48.170;11.724;2023-02-28T16:53:16;28.20;;;12.63;;
3487;SDS011;38546;48.170;11.724;2023-02-28T16:56:06;25.60;;;12.57;;
3487;SDS011;38546;48.170;11.724;2023-02-28T16:59:07;23.67;;;12.40;;
3487;SDS011;38546;48.170;11.724;2023-02-28T17:01:57;19.47;;;10.90;;
3487;SDS011;38546;48.170;11.724;2023-02-28T17:04:46;22.40;;;11.80;;
3487;SDS011;38546;48.170;11.724;2023-02-28T17:07:35;26.23;;;12.70;;
3487;SDS011;38546;48.170;11.724;2023-02-28T17:10:25;30.67;;;13.90;;
3487;SDS011;38546;48.170;11.724;2023-02-28T17:13:15;26.90;;;14.40;;
3487;SDS011;38546;48.170;11.724;2023-02-28T17:16:05;24.23;;;14.13;;
3487;SDS011;38546;48.170;11.724;2023-02-28T17:19:00;25.60;;;14.40;;
3487;SDS011;38546;48.170;11.724;2023-02-28T17:21:52;29.43;;;13.93;;
3487;SDS011;38546;48.170;11.724;2023-02-28T17:24:41;27.77;;;13.80;;
3487;SDS011;38546;48.170;11.724;2023-02-28T17:27:30;26.80;;;14.60;;
3487;SDS011;38546;48.170;11.724;2023-02-28T17:30:20;24.60;;;13.30;;
3487;SDS011;38546;48.170;11.724;2023-02-28T17:33:15;27.30;;;14.33;;
3487;SDS011;38546;48.170;11.724;2023-02-28T17:36:05;26.70;;;13.57;;
3487;SDS011;38546;48.170;11.724;2023-02-28T17:38:57;26.93;;;13.57;;
3487;SDS011;38546;48.170;11.724;2023-02-28T17:41:46;20.13;;;12.27;;
3487;SDS011;38546;48.170;11.724;2023-02-28T17:44:35;36.57;;;12.60;;
3487;SDS011;38546;48.170;11.724;2023-02-28T17:47:26;21.90;;;12.40;;
3487;SDS011;38546;48.170;11.724;2023-02-28T17:50:17;29.77;;;14.13;;
3487;SDS011;38546;48.170;11.724;2023-02-28T17:53:08;28.43;;;15.53;;
3487;SDS011;38546;48.170;11.724;2023-02-28T17:55:57;31.90;;;16.17;;
3487;SDS011;38546;48.170;11.724;2023-02-28T17:58:46;24.30;;;13.17;;
3487;SDS011;38546;48.170;11.724;2023-02-28T18:01:36;26.30;;;13.93;;
3487;SDS011;38546;48.170;11.724;2023-02-28T18:04:24;26.57;;;14.03;;
3487;SDS011;38546;48.170;11.724;2023-02-28T18:07:15;26.20;;;14.80;;
3487;SDS011;38546;48.170;11.724;2023-02-28T18:10:04;32.87;;;15.20;;
3487;SDS011;38546;48.170;11.724;2023-02-28T18:13:01;28.50;;;14.70;;
3487;SDS011;38546;48.170;11.724;2023-02-28T18:15:52;31.20;;;14.23;;
3487;SDS011;38546;48.170;11.724;2023-02-28T18:18:41;28.73;;;14.50;;
3487;SDS011;38546;48.170;11.724;2023-02-28T18:21:31;25.70;;;14.00;;
3487;SDS011;38546;48.170;11.724;2023-02-28T18:24:20;25.87;;;14.70;;
3487;SDS011;38546;48.170;11.724;2023-02-28T18:27:11;25.60;;;13.67;;
3487;SDS011;38546;48.170;11.724;2023-02-28T18:30:02;27.37;;;16.40;;
3487;SDS011;38546;48.170;11.724;2023-02-28T18:32:52;27.33;;;14.10;;
3487;SDS011;38546;48.170;11.724;2023-02-28T18:35:40;34.33;;;14.20;;
3487;SDS011;38546;48.170;11.724;2023-02-28T18:38:31;26.27;;;13.90;;
3487;SDS011;38546;48.170;11.724;2023-02-28T18:41:21;31.37;;;14.53;;